Time;durP1;ratioP1;P1;durP2;ratioP2;P2;SDS_P1;SDS_P2;PMS_P1;PMS_P2;Temp;Humidity;BMP_temperature;BMP_pressure;BME280_temperature;BME280_humidity;BME280_pressure;Samples;Min_cycle;Max_cycle;Signal;HPM_P1;HPM_P2
2021/07/14 00:02:23;;;;;;;;;15.00;14.00;;;;;-149.00;100.00;66333.84;5093951;27;45280;-77
2021/07/14 00:04:49;;;;;;;;;10.33;9.33;;;;;-149.00;100.00;66333.84;5094039;27;45335;-77
2021/07/14 00:07:14;;;;;;;;;13.33;11.33;;;;;-149.00;100.00;66333.84;5091057;27;46135;-77
2021/07/14 00:09:40;;;;;;;;;10.00;10.00;;;;;-149.00;100.00;66333.84;5094476;27;45339;-77
2021/07/14 00:12:08;;;;;;;;;11.00;11.00;;;;;-149.00;100.00;66333.84;5094946;27;45440;-77
2021/07/14 00:22:32;;;;;;;;;12.00;12.00;;;;;-149.00;100.00;66333.84;5093611;27;45324;-77
2021/07/14 00:24:58;;;;;;;;;12.00;11.67;;;;;-149.00;100.00;66333.84;5094307;27;45527;-77
2021/07/14 00:27:24;;;;;;;;;11.67;11.00;;;;;-149.00;100.00;66333.84;5093273;27;46231;-77
2021/07/14 00:29:53;;;;;;;;;17.00;12.67;;;;;-149.00;100.00;66333.84;5090996;27;45257;-77
2021/07/14 00:32:19;;;;;;;;;10.67;10.33;;;;;-149.00;100.00;66333.84;5079518;27;45421;-77
2021/07/14 00:34:46;;;;;;;;;12.33;12.33;;;;;-149.00;100.00;66333.84;5076230;28;46099;-78
2021/07/14 00:37:12;;;;;;;;;18.00;14.00;;;;;-149.00;100.00;66333.84;5094881;27;45425;-77
2021/07/14 00:39:37;;;;;;;;;16.00;16.00;;;;;-149.00;100.00;66333.84;5080273;27;45478;-77
2021/07/14 00:42:05;;;;;;;;;19.33;18.00;;;;;-149.00;100.00;66333.84;5083920;27;45268;-79
2021/07/14 00:44:30;;;;;;;;;20.67;20.33;;;;;-149.00;100.00;66333.84;5101440;27;45444;-78
2021/07/14 00:46:55;;;;;;;;;20.67;20.67;;;;;-149.00;100.00;66333.84;5096151;27;46302;-77
2021/07/14 00:49:21;;;;;;;;;25.33;21.33;;;;;-149.00;100.00;66333.84;5096506;27;45352;-77
2021/07/14 00:51:47;;;;;;;;;25.00;22.67;;;;;-149.00;100.00;66333.84;5090161;27;45650;-76
2021/07/14 00:54:13;;;;;;;;;23.67;22.67;;;;;-149.00;100.00;66333.84;5086966;27;45520;-77
2021/07/14 00:56:39;;;;;;;;;22.67;22.67;;;;;-149.00;100.00;66333.84;5098135;27;45504;-77
2021/07/14 00:59:05;;;;;;;;;27.00;26.33;;;;;-149.00;100.00;66333.84;5089655;27;45334;-77
2021/07/14 01:01:31;;;;;;;;;26.67;26.67;;;;;-149.00;100.00;66333.84;5099219;27;45374;-77
2021/07/14 01:04:09;;;;;;;;;24.00;22.33;;;;;-149.00;100.00;66333.84;5093477;27;45466;-77
2021/07/14 01:06:45;;;;;;;;;24.33;22.33;;;;;-149.00;100.00;66333.84;5097475;27;46576;-76
2021/07/14 01:09:13;;;;;;;;;24.67;23.33;;;;;-149.00;100.00;66333.84;5101030;27;45287;-76
2021/07/14 01:11:40;;;;;;;;;28.00;23.00;;;;;-149.00;100.00;66333.84;5095004;27;45313;-77
2021/07/14 01:14:22;;;;;;;;;21.33;19.67;;;;;-149.00;100.00;66333.84;5089300;27;45498;-77
2021/07/14 01:16:56;;;;;;;;;25.00;23.67;;;;;-149.00;100.00;66333.84;5082714;27;45705;-76
2021/07/14 01:19:27;;;;;;;;;21.33;20.33;;;;;-149.00;100.00;66333.84;5080573;27;46209;-76
2021/07/14 01:21:56;;;;;;;;;24.67;20.00;;;;;-149.00;100.00;66333.84;5093635;27;45505;-77
2021/07/14 01:24:30;;;;;;;;;19.00;18.00;;;;;-149.00;100.00;66333.84;5087506;27;45470;-77
2021/07/14 01:27:10;;;;;;;;;22.00;21.33;;;;;-149.00;100.00;66333.84;5100602;27;45273;-77
2021/07/14 01:29:58;;;;;;;;;21.67;20.00;;;;;-149.00;100.00;66333.84;5093861;27;45455;-78
2021/07/14 01:32:27;;;;;;;;;22.67;19.33;;;;;-149.00;100.00;66333.84;5092888;27;45236;-76
2021/07/14 01:34:58;;;;;;;;;24.33;22.00;;;;;-149.00;100.00;66333.84;5094845;27;45334;-77
2021/07/14 01:37:26;;;;;;;;;22.00;21.00;;;;;-149.00;100.00;66333.84;5095763;27;46196;-77
2021/07/14 01:39:54;;;;;;;;;19.33;16.67;;;;;-149.00;100.00;66333.84;5092004;27;45571;-77
2021/07/14 01:42:25;;;;;;;;;23.00;22.67;;;;;-149.00;100.00;66333.84;5092373;27;45395;-76
2021/07/14 01:44:53;;;;;;;;;19.00;17.00;;;;;-149.00;100.00;66333.84;5098412;27;45583;-75
2021/07/14 01:47:21;;;;;;;;;18.33;18.33;;;;;-149.00;100.00;66333.84;5094502;27;45580;-76
2021/07/14 01:49:49;;;;;;;;;17.00;17.00;;;;;-149.00;100.00;66333.84;5094130;27;45338;-76
2021/07/14 01:52:18;;;;;;;;;17.67;16.33;;;;;-149.00;100.00;66333.84;5084620;27;45161;-75
2021/07/14 01:54:44;;;;;;;;;23.33;22.00;;;;;-149.00;100.00;66333.84;5098936;27;45604;-75
2021/07/14 01:57:11;;;;;;;;;19.67;18.33;;;;;-149.00;100.00;66333.84;5089769;27;45647;-76
2021/07/14 01:59:39;;;;;;;;;16.00;15.00;;;;;-149.00;100.00;66333.84;5097456;27;45431;-77
2021/07/14 02:02:07;;;;;;;;;21.67;18.67;;;;;-149.00;100.00;66333.84;5093357;27;46483;-77
2021/07/14 02:04:36;;;;;;;;;19.00;16.33;;;;;-149.00;100.00;66333.84;5072824;27;45447;-76
2021/07/14 02:07:25;;;;;;;;;17.67;16.00;;;;;-149.00;100.00;66333.84;5081522;27;48460;-74
2021/07/14 02:09:52;;;;;;;;;14.33;13.00;;;;;-149.00;100.00;66333.84;5080814;27;45226;-76
2021/07/14 02:12:25;;;;;;;;;13.00;13.00;;;;;-149.00;100.00;66333.84;5098081;27;45307;-75
2021/07/14 02:15:05;;;;;;;;;16.33;16.33;;;;;-149.00;100.00;66333.84;5077065;27;47202;-76
2021/07/14 02:17:37;;;;;;;;;13.33;12.33;;;;;-149.00;100.00;66333.84;5090646;27;45345;-76
2021/07/14 02:20:07;;;;;;;;;16.00;16.00;;;;;-149.00;100.00;66333.84;5095114;27;45307;-76
2021/07/14 02:22:33;;;;;;;;;12.33;11.33;;;;;-149.00;100.00;66333.84;5093644;27;45301;-76
2021/07/14 02:24:59;;;;;;;;;15.33;15.00;;;;;-149.00;100.00;66333.84;5091375;27;45566;-76
2021/07/14 02:27:25;;;;;;;;;13.33;13.33;;;;;-149.00;100.00;66333.84;5097656;27;45381;-76
2021/07/14 02:29:50;;;;;;;;;16.00;12.33;;;;;-149.00;100.00;66333.84;5092834;27;45455;-76
2021/07/14 02:32:19;;;;;;;;;12.67;11.00;;;;;-149.00;100.00;66333.84;5081029;27;45360;-76
2021/07/14 02:34:47;;;;;;;;;14.33;13.33;;;;;-149.00;100.00;66333.84;5090149;27;45498;-76
2021/07/14 02:37:22;;;;;;;;;16.00;15.00;;;;;-149.00;100.00;66333.84;5095722;27;46424;-77
2021/07/14 02:39:47;;;;;;;;;13.67;12.00;;;;;-149.00;100.00;66333.84;5090636;27;45406;-76
2021/07/14 02:42:21;;;;;;;;;16.00;15.00;;;;;-149.00;100.00;66333.84;5090435;27;45415;-75
2021/07/14 02:44:47;;;;;;;;;16.67;15.00;;;;;-149.00;100.00;66333.84;5073945;27;46132;-77
2021/07/14 02:47:13;;;;;;;;;13.67;13.67;;;;;-149.00;100.00;66333.84;5070839;28;47276;-76
2021/07/14 02:49:40;;;;;;;;;13.00;11.67;;;;;-149.00;100.00;66333.84;5093035;27;45335;-75
2021/07/14 02:52:11;;;;;;;;;11.67;11.67;;;;;-149.00;100.00;66333.84;5088172;27;45443;-76
2021/07/14 02:54:39;;;;;;;;;15.33;13.33;;;;;-149.00;100.00;66333.84;5097926;27;45302;-77
2021/07/14 02:57:07;;;;;;;;;14.00;13.00;;;;;-149.00;100.00;66333.84;5082273;27;47399;-75
2021/07/14 02:59:35;;;;;;;;;18.00;14.33;;;;;-149.00;100.00;66333.84;5061269;28;45846;-76
2021/07/14 03:02:02;;;;;;;;;16.33;14.33;;;;;-149.00;100.00;66333.84;5061801;28;45341;-76
2021/07/14 03:04:34;;;;;;;;;13.33;13.00;;;;;-149.00;100.00;66333.84;5080218;28;45368;-76
2021/07/14 03:07:06;;;;;;;;;19.00;15.67;;;;;-149.00;100.00;66333.84;5061721;28;47023;-75
2021/07/14 03:09:37;;;;;;;;;17.00;16.33;;;;;-149.00;100.00;66333.84;5080207;28;45406;-76
2021/07/14 03:12:05;;;;;;;;;13.00;13.00;;;;;-149.00;100.00;66333.84;5079948;28;45280;-76
2021/07/14 03:14:31;;;;;;;;;17.67;17.67;;;;;-149.00;100.00;66333.84;5079961;28;45322;-76
2021/07/14 03:16:56;;;;;;;;;22.00;18.33;;;;;-149.00;100.00;66333.84;5079757;28;45367;-76
2021/07/14 03:19:23;;;;;;;;;18.67;16.33;;;;;-149.00;100.00;66333.84;5080003;28;45334;-75
2021/07/14 03:21:49;;;;;;;;;15.00;14.33;;;;;-149.00;100.00;66333.84;5079777;28;45363;-75
2021/07/14 03:24:15;;;;;;;;;17.33;17.33;;;;;-149.00;100.00;66333.84;5079993;28;45352;-75
2021/07/14 03:26:41;;;;;;;;;15.67;14.00;;;;;-149.00;100.00;66333.84;5079884;28;45355;-75
2021/07/14 03:29:08;;;;;;;;;13.67;12.67;;;;;-149.00;100.00;66333.84;5080041;28;45326;-76
2021/07/14 03:31:34;;;;;;;;;20.00;18.00;;;;;-149.00;100.00;66333.84;5098834;27;45331;-76
2021/07/14 03:34:00;;;;;;;;;17.67;15.33;;;;;-149.00;100.00;66333.84;5099882;27;45351;-76
2021/07/14 03:36:26;;;;;;;;;23.33;19.00;;;;;-149.00;100.00;66333.84;5081820;27;47398;-76
2021/07/14 03:38:53;;;;;;;;;16.67;16.00;;;;;-149.00;100.00;66333.84;5081971;27;45414;-77
2021/07/14 03:41:20;;;;;;;;;18.00;17.00;;;;;-149.00;100.00;66333.84;5100060;27;45416;-76
2021/07/14 03:43:45;;;;;;;;;16.00;16.00;;;;;-149.00;100.00;66333.84;5100137;27;45316;-76
2021/07/14 03:46:11;;;;;;;;;16.33;14.00;;;;;-149.00;100.00;66333.84;5100049;27;45639;-77
2021/07/14 03:48:39;;;;;;;;;16.33;15.00;;;;;-149.00;100.00;66333.84;5099935;27;45175;-77
2021/07/14 03:51:05;;;;;;;;;16.67;15.00;;;;;-149.00;100.00;66333.84;5081676;27;45367;-77
2021/07/14 03:53:31;;;;;;;;;13.00;12.33;;;;;-149.00;100.00;66333.84;5100027;27;45160;-76
2021/07/14 03:55:57;;;;;;;;;14.33;14.33;;;;;-149.00;100.00;66333.84;5099982;27;46577;-77
2021/07/14 03:58:24;;;;;;;;;14.33;14.33;;;;;-149.00;100.00;66333.84;5100006;27;45416;-76
2021/07/14 04:00:50;;;;;;;;;14.33;14.33;;;;;-149.00;100.00;66333.84;5099921;27;45271;-76
2021/07/14 04:03:21;;;;;;;;;12.00;11.67;;;;;-149.00;100.00;66333.84;5081377;27;47390;-76
2021/07/14 04:05:52;;;;;;;;;16.67;15.00;;;;;-149.00;100.00;66333.84;5099856;27;45357;-77
2021/07/14 04:08:22;;;;;;;;;13.33;12.67;;;;;-149.00;100.00;66333.84;5099811;27;45368;-76
2021/07/14 04:10:47;;;;;;;;;15.00;13.00;;;;;-149.00;100.00;66333.84;5099777;27;45462;-75
2021/07/14 04:13:13;;;;;;;;;15.00;13.67;;;;;-149.00;100.00;66333.84;5099659;27;45484;-76
2021/07/14 04:15:38;;;;;;;;;16.67;15.00;;;;;-149.00;100.00;66333.84;5101758;27;46069;-77
2021/07/14 04:18:05;;;;;;;;;17.67;15.67;;;;;-149.00;100.00;66333.84;5103306;27;45356;-77
2021/07/14 04:20:32;;;;;;;;;15.00;14.00;;;;;-149.00;100.00;66333.84;5103369;27;45334;-76
2021/07/14 04:22:57;;;;;;;;;11.00;11.00;;;;;-149.00;100.00;66333.84;5084539;27;47825;-77
2021/07/14 04:25:23;;;;;;;;;9.67;9.67;;;;;-149.00;100.00;66333.84;5103159;27;46313;-77
2021/07/14 04:27:48;;;;;;;;;14.67;14.00;;;;;-149.00;100.00;66333.84;5103296;27;45268;-76
2021/07/14 04:30:14;;;;;;;;;10.00;10.00;;;;;-149.00;100.00;66333.84;5095317;27;45394;-76
2021/07/14 04:32:40;;;;;;;;;13.67;10.00;;;;;-149.00;100.00;66333.84;5084145;27;47190;-76
2021/07/14 04:35:06;;;;;;;;;13.00;11.00;;;;;-149.00;100.00;66333.84;5102946;27;45290;-77
2021/07/14 04:37:31;;;;;;;;;12.00;11.67;;;;;-149.00;100.00;66333.84;5102909;27;45393;-77
2021/07/14 04:39:56;;;;;;;;;10.33;10.33;;;;;-149.00;100.00;66333.84;5101762;27;45244;-77
2021/07/14 04:42:22;;;;;;;;;16.00;12.67;;;;;-149.00;100.00;66333.84;5103131;27;45444;-77
2021/07/14 04:44:56;;;;;;;;;12.33;12.33;;;;;-149.00;100.00;66333.84;5102929;27;45664;-77
2021/07/14 04:47:21;;;;;;;;;11.00;10.00;;;;;-149.00;100.00;66333.84;5084264;27;45864;-77
2021/07/14 04:49:47;;;;;;;;;9.33;9.33;;;;;-149.00;100.00;66333.84;5102960;27;45312;-77
2021/07/14 04:52:12;;;;;;;;;12.33;11.33;;;;;-149.00;100.00;66333.84;5102814;27;45340;-77
2021/07/14 04:54:42;;;;;;;;;11.67;11.67;;;;;-149.00;100.00;66333.84;5102809;27;46282;-77
2021/07/14 04:57:09;;;;;;;;;13.00;12.00;;;;;-149.00;100.00;66333.84;5102732;27;45295;-77
2021/07/14 04:59:35;;;;;;;;;12.00;12.00;;;;;-149.00;100.00;66333.84;5084655;27;45257;-77
2021/07/14 05:02:04;;;;;;;;;11.33;10.33;;;;;-149.00;100.00;66333.84;5102555;27;45262;-78
2021/07/14 05:04:31;;;;;;;;;10.00;10.00;;;;;-149.00;100.00;66333.84;5102723;27;46428;-77
2021/07/14 05:06:56;;;;;;;;;10.67;10.00;;;;;-149.00;100.00;66333.84;5102653;27;45262;-78
2021/07/14 05:09:22;;;;;;;;;10.67;10.00;;;;;-149.00;100.00;66333.84;5084263;27;45322;-78
2021/07/14 05:11:47;;;;;;;;;11.00;11.00;;;;;-149.00;100.00;66333.84;5102686;27;45309;-78
2021/07/14 05:14:13;;;;;;;;;12.00;12.00;;;;;-149.00;100.00;66333.84;5102520;27;45314;-77
2021/07/14 05:16:38;;;;;;;;;10.67;10.00;;;;;-149.00;100.00;66333.84;5102575;27;45267;-77
2021/07/14 05:19:04;;;;;;;;;10.67;10.67;;;;;-149.00;100.00;66333.84;5102632;27;45322;-78
2021/07/14 05:21:30;;;;;;;;;10.00;9.33;;;;;-149.00;100.00;66333.84;5101974;27;45578;-78
2021/07/14 05:23:56;;;;;;;;;10.33;10.00;;;;;-149.00;100.00;66333.84;5102471;27;45211;-78
2021/07/14 05:26:21;;;;;;;;;13.33;11.00;;;;;-149.00;100.00;66333.84;5101178;27;45338;-76
2021/07/14 05:28:47;;;;;;;;;12.00;10.67;;;;;-149.00;100.00;66333.84;5102448;27;45434;-76
2021/07/14 05:31:12;;;;;;;;;12.33;12.33;;;;;-149.00;100.00;66333.84;5075341;27;45507;-77
2021/07/14 05:33:38;;;;;;;;;8.67;8.67;;;;;-149.00;100.00;66333.84;5101693;27;45593;-77
2021/07/14 05:36:03;;;;;;;;;11.33;10.00;;;;;-149.00;100.00;66333.84;5102335;27;45302;-77
2021/07/14 05:38:29;;;;;;;;;10.33;10.00;;;;;-149.00;100.00;66333.84;5083730;27;45859;-77
2021/07/14 05:40:55;;;;;;;;;11.33;11.00;;;;;-149.00;100.00;66333.84;5102005;27;45568;-77
2021/07/14 05:43:20;;;;;;;;;11.67;10.00;;;;;-149.00;100.00;66333.84;5102065;27;46040;-76
2021/07/14 05:45:47;;;;;;;;;10.33;9.33;;;;;-149.00;100.00;66333.84;5102083;27;45332;-77
2021/07/14 05:48:12;;;;;;;;;8.67;8.67;;;;;-149.00;100.00;66333.84;5083643;27;45371;-77
2021/07/14 05:50:39;;;;;;;;;12.00;11.00;;;;;-149.00;100.00;66333.84;5083567;27;45433;-77
2021/07/14 05:53:05;;;;;;;;;10.33;9.67;;;;;-149.00;100.00;66333.84;5101828;27;45235;-77
2021/07/14 05:55:31;;;;;;;;;11.00;9.33;;;;;-149.00;100.00;66333.84;5101798;27;45297;-80
2021/07/14 05:57:56;;;;;;;;;9.67;9.67;;;;;-149.00;100.00;66333.84;5083117;27;45413;-76
2021/07/14 06:00:22;;;;;;;;;13.33;13.00;;;;;-149.00;100.00;66333.84;5101727;27;45349;-76
2021/07/14 06:02:47;;;;;;;;;12.00;12.00;;;;;-149.00;100.00;66333.84;5101640;27;45346;-77
2021/07/14 06:05:13;;;;;;;;;14.67;13.00;;;;;-149.00;100.00;66333.84;5101697;27;45285;-77
2021/07/14 06:07:39;;;;;;;;;10.00;10.00;;;;;-149.00;100.00;66333.84;5101952;27;45342;-77
2021/07/14 06:10:06;;;;;;;;;10.33;9.67;;;;;-149.00;100.00;66333.84;5083273;27;46914;-79
2021/07/14 06:12:32;;;;;;;;;10.00;10.00;;;;;-149.00;100.00;66333.84;5101580;27;47663;-76
2021/07/14 06:14:57;;;;;;;;;9.67;9.67;;;;;-149.00;100.00;66333.84;5101520;27;45208;-77
2021/07/14 06:17:22;;;;;;;;;13.00;12.00;;;;;-149.00;100.00;66333.84;5101554;27;45315;-75
2021/07/14 06:19:48;;;;;;;;;11.00;10.00;;;;;-149.00;100.00;66333.84;5101492;27;45306;-76
2021/07/14 06:22:13;;;;;;;;;11.33;11.33;;;;;-149.00;100.00;66333.84;5100973;27;45685;-76
2021/07/14 06:24:40;;;;;;;;;12.00;11.00;;;;;-149.00;100.00;66333.84;5101555;27;45254;-77
2021/07/14 06:27:05;;;;;;;;;11.33;11.00;;;;;-149.00;100.00;66333.84;5101624;27;45216;-76
2021/07/14 06:29:31;;;;;;;;;11.67;11.67;;;;;-149.00;100.00;66333.84;5082898;27;45222;-76
2021/07/14 06:31:56;;;;;;;;;9.67;9.00;;;;;-149.00;100.00;66333.84;5101147;27;45382;-76
2021/07/14 06:34:22;;;;;;;;;10.33;10.33;;;;;-149.00;100.00;66333.84;5065882;27;45425;-77
2021/07/14 06:36:47;;;;;;;;;11.67;9.67;;;;;-149.00;100.00;66333.84;5101508;27;45321;-76
2021/07/14 06:39:13;;;;;;;;;14.00;11.00;;;;;-149.00;100.00;66333.84;5100936;27;45311;-77
2021/07/14 06:41:38;;;;;;;;;13.00;11.67;;;;;-149.00;100.00;66333.84;5101101;27;45317;-76
2021/07/14 06:44:05;;;;;;;;;11.00;9.33;;;;;-149.00;100.00;66333.84;5082590;27;45371;-77
2021/07/14 06:46:31;;;;;;;;;10.00;9.33;;;;;-149.00;100.00;66333.84;5100992;27;45384;-77
2021/07/14 06:48:58;;;;;;;;;11.33;11.33;;;;;-149.00;100.00;66333.84;5101012;27;45252;-77
2021/07/14 06:51:23;;;;;;;;;10.33;10.33;;;;;-149.00;100.00;66333.84;5100898;27;46611;-77
2021/07/14 06:53:49;;;;;;;;;10.67;10.33;;;;;-149.00;100.00;66333.84;5082509;27;45223;-76
2021/07/14 06:56:14;;;;;;;;;12.33;10.33;;;;;-149.00;100.00;66333.84;5101238;27;45157;-75
2021/07/14 06:58:40;;;;;;;;;9.00;8.00;;;;;-149.00;100.00;66333.84;5101041;27;45499;-75
2021/07/14 07:01:07;;;;;;;;;10.00;10.00;;;;;-149.00;100.00;66333.84;5100923;27;45229;-75
2021/07/14 07:03:34;;;;;;;;;12.33;12.33;;;;;-149.00;100.00;66333.84;5082362;27;45934;-77
2021/07/14 07:06:00;;;;;;;;;10.33;10.00;;;;;-149.00;100.00;66333.84;5100800;27;45257;-76
2021/07/14 07:08:25;;;;;;;;;8.33;8.33;;;;;-149.00;100.00;66333.84;5082323;27;46390;-76
2021/07/14 07:10:50;;;;;;;;;11.00;11.00;;;;;-149.00;100.00;66333.84;5100912;27;45261;-77
2021/07/14 07:13:16;;;;;;;;;10.33;10.00;;;;;-149.00;100.00;66333.84;5078634;28;45273;-75
2021/07/14 07:15:45;;;;;;;;;11.33;10.67;;;;;-149.00;100.00;66333.84;5099530;27;45436;-75
2021/07/14 07:18:11;;;;;;;;;9.00;9.00;;;;;-149.00;100.00;66333.84;5100585;27;45580;-76
2021/07/14 07:20:37;;;;;;;;;9.00;8.00;;;;;-149.00;100.00;66333.84;5100454;27;46427;-76
2021/07/14 07:23:03;;;;;;;;;10.33;9.67;;;;;-149.00;100.00;66333.84;5100277;27;45331;-76
2021/07/14 07:25:28;;;;;;;;;10.00;9.67;;;;;-149.00;100.00;66333.84;5100830;27;45246;-76
2021/07/14 07:27:56;;;;;;;;;9.00;9.00;;;;;-149.00;100.00;66333.84;5100575;27;45479;-75
2021/07/14 07:30:21;;;;;;;;;11.00;9.67;;;;;-149.00;100.00;66333.84;5100347;27;46295;-75
2021/07/14 07:32:47;;;;;;;;;6.33;6.33;;;;;-149.00;100.00;66333.84;5099883;27;45271;-75
2021/07/14 07:35:12;;;;;;;;;9.00;9.00;;;;;-149.00;100.00;66333.84;5100788;27;45225;-75
2021/07/14 07:37:38;;;;;;;;;8.33;8.00;;;;;-149.00;100.00;66333.84;5081577;27;46007;-79
2021/07/14 07:40:05;;;;;;;;;9.33;9.00;;;;;-149.00;100.00;66333.84;5099421;27;45282;-75
2021/07/14 07:42:31;;;;;;;;;7.67;7.67;;;;;-149.00;100.00;66333.84;5099858;27;45164;-76
2021/07/14 07:44:57;;;;;;;;;7.67;7.67;;;;;-149.00;100.00;66333.84;5100461;27;45407;-75
2021/07/14 07:47:22;;;;;;;;;6.33;6.00;;;;;-149.00;100.00;66333.84;5100323;27;45236;-75
2021/07/14 07:49:48;;;;;;;;;6.67;6.00;;;;;-149.00;100.00;66333.84;5099442;27;45570;-76
2021/07/14 07:52:14;;;;;;;;;8.00;7.00;;;;;-149.00;100.00;66333.84;5098949;27;45716;-76
2021/07/14 07:54:40;;;;;;;;;7.00;6.33;;;;;-149.00;100.00;66333.84;5100357;27;45310;-76
2021/07/14 07:57:06;;;;;;;;;5.67;5.67;;;;;-149.00;100.00;66333.84;5099952;27;47153;-76
2021/07/14 07:59:34;;;;;;;;;7.00;6.00;;;;;-149.00;100.00;66333.84;5099700;27;47158;-76
2021/07/14 08:01:59;;;;;;;;;6.00;6.00;;;;;-149.00;100.00;66333.84;5099652;27;45378;-76
2021/07/14 08:04:25;;;;;;;;;8.67;8.67;;;;;-149.00;100.00;66333.84;5100240;27;45240;-76
2021/07/14 08:06:50;;;;;;;;;6.67;6.67;;;;;-149.00;100.00;66333.84;5078730;27;45903;-77
2021/07/14 08:09:15;;;;;;;;;5.67;5.67;;;;;-149.00;100.00;66333.84;5099522;27;45167;-76
2021/07/14 08:11:41;;;;;;;;;5.00;5.00;;;;;-149.00;100.00;66333.84;5084151;27;45839;-80
2021/07/14 08:14:06;;;;;;;;;7.33;7.00;;;;;-149.00;100.00;66333.84;5089873;27;45335;-77
2021/07/14 08:16:32;;;;;;;;;6.33;6.33;;;;;-149.00;100.00;66333.84;5079374;28;45755;-77
2021/07/14 08:18:57;;;;;;;;;6.67;6.67;;;;;-149.00;100.00;66333.84;5091189;27;46137;-76
2021/07/14 08:21:26;;;;;;;;;6.00;6.00;;;;;-149.00;100.00;66333.84;5099331;27;45336;-77
2021/07/14 08:23:51;;;;;;;;;6.00;6.00;;;;;-149.00;100.00;66333.84;5100300;27;45296;-76
2021/07/14 08:26:17;;;;;;;;;6.00;6.00;;;;;-149.00;100.00;66333.84;5081417;27;46511;-76
2021/07/14 08:28:43;;;;;;;;;7.67;7.67;;;;;-149.00;100.00;66333.84;5099807;27;45297;-75
2021/07/14 08:31:08;;;;;;;;;7.33;7.00;;;;;-149.00;100.00;66333.84;5098364;27;45680;-76
2021/07/14 08:33:34;;;;;;;;;6.33;5.00;;;;;-149.00;100.00;66333.84;5118957;27;45283;-75
2021/07/14 08:36:00;;;;;;;;;6.00;6.00;;;;;-149.00;100.00;66333.84;5120245;27;45426;-76
2021/07/14 08:38:26;;;;;;;;;5.00;5.00;;;;;-149.00;100.00;66333.84;5101414;27;47462;-77
2021/07/14 08:40:52;;;;;;;;;6.00;6.00;;;;;-149.00;100.00;66333.84;5120262;27;45377;-76
2021/07/14 08:43:21;;;;;;;;;8.00;8.00;;;;;-149.00;100.00;66333.84;5120447;27;45279;-76
2021/07/14 08:45:47;;;;;;;;;4.67;4.67;;;;;-149.00;100.00;66333.84;5120125;27;45502;-76
2021/07/14 08:48:14;;;;;;;;;9.00;8.33;;;;;-149.00;100.00;66333.84;5120116;27;45229;-76
2021/07/14 08:50:44;;;;;;;;;6.67;6.00;;;;;-149.00;100.00;66333.84;5106801;27;45300;-76
2021/07/14 08:53:17;;;;;;;;;10.00;8.00;;;;;-149.00;100.00;66333.84;5098879;27;45280;-76
2021/07/14 08:55:44;;;;;;;;;9.33;8.00;;;;;-149.00;100.00;66333.84;5081100;27;46229;-76
2021/07/14 08:58:12;;;;;;;;;6.00;6.00;;;;;-149.00;100.00;66333.84;5099369;27;46040;-77
2021/07/14 09:00:37;;;;;;;;;8.00;8.00;;;;;-149.00;100.00;66333.84;5097403;27;45386;-78
2021/07/14 09:03:03;;;;;;;;;6.67;6.67;;;;;-149.00;100.00;66333.84;5102441;27;45489;-76
2021/07/14 09:05:28;;;;;;;;;8.00;8.00;;;;;-149.00;100.00;66333.84;5102681;27;45481;-76
2021/07/14 09:07:54;;;;;;;;;7.33;7.33;;;;;-149.00;100.00;66333.84;5102450;27;45242;-77
2021/07/14 09:10:19;;;;;;;;;8.67;8.33;;;;;-149.00;100.00;66333.84;5084442;27;46289;-77
2021/07/14 09:12:45;;;;;;;;;7.00;6.67;;;;;-149.00;100.00;66333.84;5103088;27;45172;-76
2021/07/14 09:15:13;;;;;;;;;9.00;9.00;;;;;-149.00;100.00;66333.84;5085524;27;46526;-77
2021/07/14 09:17:55;;;;;;;;;7.00;7.00;;;;;-149.00;100.00;66333.84;5103164;27;45352;-75
2021/07/14 09:20:21;;;;;;;;;6.67;6.00;;;;;-149.00;100.00;66333.84;5103045;27;45165;-76
2021/07/14 09:22:47;;;;;;;;;19.00;18.67;;;;;-149.00;100.00;66333.84;5102522;27;45279;-77
2021/07/14 09:25:17;;;;;;;;;6.00;6.00;;;;;-149.00;100.00;66333.84;5102722;27;46053;-77
2021/07/14 09:27:58;;;;;;;;;6.00;6.00;;;;;-149.00;100.00;66333.84;5102372;27;45346;-76
2021/07/14 09:30:26;;;;;;;;;4.67;3.00;;;;;-149.00;100.00;66333.84;5103356;27;45318;-76
2021/07/14 09:32:57;;;;;;;;;8.00;8.00;;;;;-149.00;100.00;66333.84;5084763;27;45544;-79
2021/07/14 09:35:27;;;;;;;;;7.33;7.33;;;;;-149.00;100.00;66333.84;5102243;27;45350;-77
2021/07/14 09:37:53;;;;;;;;;8.00;8.00;;;;;-149.00;100.00;66333.84;5102048;27;46224;-78
2021/07/14 09:40:20;;;;;;;;;31.67;30.00;;;;;-149.00;100.00;66333.84;5083728;27;45336;-76
2021/07/14 09:42:57;;;;;;;;;65.50;50.75;;;;;-149.00;100.00;66333.84;5102280;27;45226;-75
2021/07/14 09:45:53;;;;;;;;;7.00;7.00;;;;;-149.00;100.00;66333.84;5102042;27;45358;-76
2021/07/14 09:48:20;;;;;;;;;6.00;6.00;;;;;-149.00;100.00;66333.84;5083019;27;47304;-75
2021/07/14 09:50:52;;;;;;;;;6.67;6.67;;;;;-149.00;100.00;66333.84;5102173;27;45393;-76
2021/07/14 09:53:20;;;;;;;;;6.33;6.33;;;;;-149.00;100.00;66333.84;5102263;27;45255;-77
2021/07/14 09:55:51;;;;;;;;;6.33;5.67;;;;;-149.00;100.00;66333.84;5102272;27;45351;-76
2021/07/14 09:58:28;;;;;;;;;9.00;8.00;;;;;-149.00;100.00;66333.84;5102366;27;45369;-79
2021/07/14 10:01:03;;;;;;;;;6.67;6.00;;;;;-149.00;100.00;66333.84;5102115;27;45377;-75
2021/07/14 10:03:34;;;;;;;;;5.33;5.33;;;;;-149.00;100.00;66333.84;5101803;27;45369;-76
2021/07/14 10:06:02;;;;;;;;;5.00;5.00;;;;;-149.00;100.00;66333.84;5101977;27;45320;-76
2021/07/14 10:08:28;;;;;;;;;7.33;6.67;;;;;-149.00;100.00;66333.84;5101339;27;46499;-77
2021/07/14 10:11:21;;;;;;;;;7.00;7.00;;;;;-149.00;100.00;66333.84;5101834;27;45277;-76
2021/07/14 10:14:07;;;;;;;;;7.00;6.00;;;;;-149.00;100.00;66333.84;5101260;27;45390;-75
2021/07/14 10:16:34;;;;;;;;;7.00;7.00;;;;;-149.00;100.00;66333.84;5101175;27;45299;-75
2021/07/14 10:19:01;;;;;;;;;7.00;6.33;;;;;-149.00;100.00;66333.84;5101708;27;45318;-76
2021/07/14 10:21:28;;;;;;;;;6.33;6.33;;;;;-149.00;100.00;66333.84;5101291;27;45250;-76
2021/07/14 10:23:53;;;;;;;;;8.33;8.00;;;;;-149.00;100.00;66333.84;5101766;27;45328;-75
2021/07/14 10:26:19;;;;;;;;;7.00;6.00;;;;;-149.00;100.00;66333.84;5101528;27;45512;-75
2021/07/14 10:28:45;;;;;;;;;8.67;6.33;;;;;-149.00;100.00;66333.84;5101512;27;46268;-76
2021/07/14 10:31:12;;;;;;;;;7.33;7.00;;;;;-149.00;100.00;66333.84;5100789;27;45230;-75
2021/07/14 10:33:39;;;;;;;;;5.67;5.67;;;;;-149.00;100.00;66333.84;5101270;27;45327;-76
2021/07/14 10:36:07;;;;;;;;;7.33;7.00;;;;;-149.00;100.00;66333.84;5082899;27;45323;-77
2021/07/14 10:38:33;;;;;;;;;6.33;6.33;;;;;-149.00;100.00;66333.84;5098601;27;45463;-76
2021/07/14 10:41:00;;;;;;;;;7.33;7.00;;;;;-149.00;100.00;66333.84;5100797;27;45303;-76
2021/07/14 10:43:28;;;;;;;;;5.33;5.33;;;;;-149.00;100.00;66333.84;5097601;27;45174;-77
2021/07/14 10:45:54;;;;;;;;;4.33;4.33;;;;;-149.00;100.00;66333.84;5099490;27;45506;-76
2021/07/14 10:48:24;;;;;;;;;7.00;7.00;;;;;-149.00;100.00;66333.84;5099948;27;45873;-76
2021/07/14 10:50:52;;;;;;;;;5.00;5.00;;;;;-149.00;100.00;66333.84;5082255;27;45395;-79
2021/07/14 10:53:18;;;;;;;;;3.67;3.67;;;;;-149.00;100.00;66333.84;5098775;27;45414;-78
2021/07/14 10:55:46;;;;;;;;;8.00;7.00;;;;;-149.00;100.00;66333.84;5097626;27;45366;-77
2021/07/14 10:58:18;;;;;;;;;7.00;7.00;;;;;-149.00;100.00;66333.84;5082244;27;47324;-78
2021/07/14 11:00:46;;;;;;;;;7.33;6.00;;;;;-149.00;100.00;66333.84;5082491;27;45925;-77
2021/07/14 11:03:33;;;;;;;;;6.00;6.00;;;;;-149.00;100.00;66333.84;5099398;27;45417;-77
2021/07/14 11:06:09;;;;;;;;;6.67;6.67;;;;;-149.00;100.00;66333.84;5100698;27;45270;-76
2021/07/14 11:08:49;;;;;;;;;6.67;5.67;;;;;-149.00;100.00;66333.84;5082284;27;47330;-75
2021/07/14 11:11:21;;;;;;;;;9.00;7.67;;;;;-149.00;100.00;66333.84;5099815;27;45280;-78